Time;durP1;ratioP1;P1;durP2;ratioP2;P2;SDS_P1;SDS_P2;PMS_P1;PMS_P2;Temp;Humidity;BMP_temperature;BMP_pressure;BME280_temperature;BME280_humidity;BME280_pressure;Samples;Min_cycle;Max_cycle;Signal;HPM_P1;HPM_P2
2022/10/08 00:01:52;;;;;;;0.37;0.37;;;14.40;99.90;14.90;101478.00;;;;5034783;28;20545;-66
2022/10/08 00:05:16;;;;;;;1.90;1.47;;;14.40;99.90;14.40;101485.00;;;;5049935;28;20198;-67
2022/10/08 00:08:29;;;;;;;0.30;0.30;;;14.20;99.90;14.00;101478.00;;;;5050936;28;20631;-65
2022/10/08 00:11:49;;;;;;;0.30;0.30;;;13.90;99.90;14.20;101486.00;;;;5035501;28;20211;-66
2022/10/08 00:14:52;;;;;;;0.20;0.20;;;14.00;99.90;14.20;101494.00;;;;5035578;28;20190;-66
2022/10/08 00:18:14;;;;;;;0.40;0.40;;;13.90;99.90;14.10;101492.00;;;;5050415;28;20631;-65
2022/10/08 00:21:28;;;;;;;0.63;0.63;;;14.00;99.90;14.00;101489.00;;;;5048843;28;20176;-66
2022/10/08 00:24:38;;;;;;;0.20;0.20;;;13.90;99.90;14.50;101437.00;;;;5034070;28;20191;-66
2022/10/08 00:27:44;;;;;;;0.93;0.93;;;14.10;99.90;14.70;101491.00;;;;5034309;28;20179;-66
2022/10/08 00:30:48;;;;;;;2.07;0.93;;;14.20;99.90;14.20;101499.00;;;;5035411;28;20190;-66
2022/10/08 00:33:42;;;;;;;0.50;0.50;;;14.10;99.90;14.00;101493.00;;;;5050065;28;20220;-66
2022/10/08 00:36:55;;;;;;;0.30;0.30;;;14.00;99.90;13.90;101512.00;;;;5034157;28;20205;-66
2022/10/08 00:40:16;;;;;;;1.47;1.37;;;13.90;99.90;14.50;101520.00;;;;5049975;28;20706;-65
2022/10/08 00:43:34;;;;;;;0.80;0.80;;;14.20;99.90;14.40;101463.00;;;;5050351;28;20181;-66
2022/10/08 00:46:27;;;;;;;0.40;0.40;;;14.20;99.90;14.50;101520.00;;;;5033527;28;20196;-65
2022/10/08 00:49:25;;;;;;;0.80;0.80;;;14.30;99.90;14.70;101479.00;;;;5034974;28;20176;-66
2022/10/08 00:52:51;;;;;;;1.37;1.00;;;14.30;99.90;14.50;101530.00;;;;5050090;28;20539;-66
2022/10/08 00:59:25;;;;;;;6.37;1.33;;;13.80;99.90;13.60;101511.00;;;;5046949;28;20185;-65
2022/10/08 01:02:35;;;;;;;0.37;0.37;;;13.70;99.90;13.50;101528.00;;;;5049438;28;20183;-65
2022/10/08 01:05:42;;;;;;;0.30;0.30;;;13.40;99.90;13.30;101517.00;;;;5034437;28;20199;-65
2022/10/08 01:08:47;;;;;;;2.50;1.17;;;13.30;99.90;13.20;101494.00;;;;5034433;28;20241;-65
2022/10/08 01:11:53;;;;;;;0.20;0.20;;;13.20;99.90;13.40;101544.00;;;;5034360;28;20187;-65
2022/10/08 01:14:59;;;;;;;0.47;0.47;;;13.20;99.90;13.10;101547.00;;;;5049687;28;20193;-65
2022/10/08 01:18:03;;;;;;;0.53;0.50;;;13.10;99.90;13.00;101551.00;;;;5034385;28;20625;-65
2022/10/08 01:20:49;;;;;;;0.40;0.40;;;13.00;99.90;13.10;101506.00;;;;5034308;28;20178;-65
2022/10/08 01:23:41;;;;;;;0.50;0.50;;;13.00;99.90;13.30;101544.00;;;;5034288;28;20690;-65
2022/10/08 01:26:34;;;;;;;0.60;0.60;;;13.00;99.90;12.90;101550.00;;;;5034425;28;20204;-65
2022/10/08 01:29:40;;;;;;;0.60;0.60;;;12.90;99.90;12.90;101556.00;;;;5049413;28;20540;-66
2022/10/08 01:32:59;;;;;;;0.50;0.40;;;12.90;99.90;13.20;101566.00;;;;5049107;28;20212;-65
2022/10/08 01:36:05;;;;;;;0.93;0.93;;;12.90;99.90;13.00;101552.00;;;;5032858;28;20195;-65
2022/10/08 01:39:20;;;;;;;0.63;0.63;;;12.90;99.90;13.50;101568.00;;;;5049270;28;20179;-65
2022/10/08 01:42:14;;;;;;;1.57;1.47;;;13.00;99.90;13.20;101561.00;;;;5049499;28;20199;-65
2022/10/08 01:45:36;;;;;;;7.10;1.53;;;13.00;99.90;12.80;101568.00;;;;5033533;28;20539;-65
2022/10/08 01:48:47;;;;;;;1.23;1.13;;;12.80;99.90;13.00;101558.00;;;;5032972;28;20256;-65
2022/10/08 01:52:07;;;;;;;1.17;1.07;;;12.80;99.90;13.00;101557.00;;;;5048661;28;20548;-65
2022/10/08 01:56:02;;;;;;;0.60;0.60;;;12.90;99.90;13.10;101560.00;;;;5031318;28;20197;-65
2022/10/08 01:59:00;;;;;;;0.30;0.30;;;12.90;99.90;13.00;101554.00;;;;5032822;28;20205;-65
2022/10/08 02:02:01;;;;;;;1.70;1.60;;;12.90;99.90;13.20;101565.00;;;;5032144;28;20211;-65
2022/10/08 02:05:08;;;;;;;2.33;0.93;;;12.90;99.90;12.90;101575.00;;;;5033435;28;20184;-65
2022/10/08 02:08:16;;;;;;;0.83;0.83;;;12.90;99.90;13.40;101574.00;;;;5032235;28;20228;-65
2022/10/08 02:11:22;;;;;;;0.40;0.40;;;12.90;99.90;13.10;101559.00;;;;5032235;28;20288;-65
2022/10/08 02:14:31;;;;;;;0.40;0.40;;;12.90;99.90;13.00;101533.00;;;;5033137;28;20258;-65
2022/10/08 02:17:27;;;;;;;0.40;0.40;;;12.90;99.90;13.20;101575.00;;;;5032238;28;20204;-66
2022/10/08 02:20:30;;;;;;;0.40;0.40;;;12.90;99.90;14.00;101574.00;;;;5033085;28;20180;-66
2022/10/08 02:23:23;;;;;;;0.60;0.60;;;13.10;99.90;13.80;101528.00;;;;5033560;28;20170;-66
2022/10/08 02:26:34;;;;;;;0.40;0.40;;;13.20;99.90;13.30;101567.00;;;;5033174;28;20191;-65
2022/10/08 02:29:32;;;;;;;0.40;0.40;;;12.90;99.90;13.40;101532.00;;;;5047286;28;20628;-66
2022/10/08 02:36:22;;;;;;;0.30;0.30;;;12.80;99.90;13.00;101581.00;;;;5027134;28;20679;-66
2022/10/08 02:39:31;;;;;;;0.50;0.50;;;12.70;99.90;13.10;101577.00;;;;5023815;28;20200;-66
2022/10/08 02:42:37;;;;;;;3.90;1.13;;;12.90;99.90;13.20;101578.00;;;;4998379;28;20268;-66
2022/10/08 02:45:55;;;;;;;0.77;0.77;;;12.80;99.90;13.60;101585.00;;;;4998605;28;20561;-66
2022/10/08 02:49:42;;;;;;;0.70;0.70;;;12.90;99.90;13.00;101584.00;;;;5014754;28;20185;-66
2022/10/08 02:52:58;;;;;;;5.20;1.57;;;12.90;99.90;13.10;101590.00;;;;5024262;28;20213;-66
2022/10/08 02:56:01;;;;;;;1.90;1.80;;;12.80;99.90;13.30;101577.00;;;;5030624;28;20243;-66
2022/10/08 02:59:10;;;;;;;0.80;0.80;;;13.00;99.90;13.50;101526.00;;;;5030758;28;20194;-66
2022/10/08 03:02:04;;;;;;;1.87;1.63;;;12.90;99.90;13.30;101577.00;;;;5013654;28;20203;-66
2022/10/08 03:04:53;;;;;;;0.40;0.40;;;12.90;99.90;13.10;101551.00;;;;5013376;28;20246;-66
2022/10/08 03:08:07;;;;;;;0.53;0.53;;;12.80;99.90;13.20;101576.00;;;;5030716;28;20228;-66
2022/10/08 03:11:14;;;;;;;0.30;0.30;;;12.80;99.90;13.40;101572.00;;;;5015811;28;20188;-66
2022/10/08 03:14:28;;;;;;;1.70;1.60;;;12.80;99.90;13.00;101579.00;;;;5047667;28;20266;-66
2022/10/08 03:17:38;;;;;;;0.50;0.50;;;12.80;99.90;13.10;101594.00;;;;5047593;28;20181;-66
2022/10/08 03:20:52;;;;;;;0.50;0.50;;;12.70;99.90;13.00;101602.00;;;;5034891;28;20244;-66
2022/10/08 03:24:11;;;;;;;0.57;0.57;;;12.60;99.90;13.00;101591.00;;;;5036459;28;20189;-66
2022/10/08 03:27:02;;;;;;;0.47;0.47;;;12.50;99.90;13.40;101606.00;;;;5051501;28;20710;-67
2022/10/08 03:30:23;;;;;;;0.90;0.90;;;12.70;99.90;13.20;101565.00;;;;5036461;28;20264;-66
2022/10/08 03:33:21;;;;;;;0.40;0.40;;;12.70;99.90;13.10;101544.00;;;;5036393;28;20262;-66
2022/10/08 03:36:35;;;;;;;0.30;0.30;;;12.70;99.90;12.80;101606.00;;;;5035079;28;20255;-66
2022/10/08 03:39:38;;;;;;;0.43;0.37;;;12.60;99.90;12.50;101612.00;;;;5034997;28;20201;-66
2022/10/08 03:46:33;;;;;;;1.23;1.23;;;12.40;99.90;13.00;101612.00;;;;5048955;28;20206;-66
2022/10/08 03:49:44;;;;;;;1.37;1.23;;;12.60;99.90;12.60;101563.00;;;;5047720;28;20175;-66
2022/10/08 03:52:50;;;;;;;0.47;0.47;;;12.50;99.90;12.50;101619.00;;;;5035032;28;20337;-66
2022/10/08 03:55:43;;;;;;;0.43;0.43;;;12.30;99.90;12.40;101624.00;;;;5035570;28;20188;-66
2022/10/08 03:58:58;;;;;;;0.57;0.57;;;12.30;99.90;12.20;101625.00;;;;5036000;28;20954;-66
2022/10/08 04:02:07;;;;;;;0.77;0.77;;;12.20;99.90;12.20;101615.00;;;;5034543;28;20213;-66
2022/10/08 04:05:43;;;;;;;2.47;1.00;;;12.10;99.90;12.20;101634.00;;;;5050460;28;20217;-66
2022/10/08 04:08:52;;;;;;;5.73;2.60;;;12.10;99.90;12.30;101621.00;;;;5048901;28;20587;-66
2022/10/08 04:12:03;;;;;;;0.50;0.50;;;12.10;99.90;12.20;101632.00;;;;5050500;28;20182;-66
2022/10/08 04:14:53;;;;;;;0.70;0.70;;;12.10;99.90;12.10;101627.00;;;;5035606;28;20722;-67
2022/10/08 04:17:56;;;;;;;0.90;0.90;;;12.10;99.90;12.10;101637.00;;;;5035632;28;20704;-66
2022/10/08 04:21:08;;;;;;;0.30;0.30;;;12.00;99.90;12.40;101652.00;;;;5051059;28;20252;-66
2022/10/08 04:24:20;;;;;;;0.77;0.77;;;12.10;99.90;12.20;101649.00;;;;5034183;28;20182;-67
2022/10/08 04:27:36;;;;;;;0.37;0.37;;;12.10;99.90;12.20;101591.00;;;;5050436;28;20188;-66
2022/10/08 04:30:44;;;;;;;0.90;0.80;;;12.00;99.90;12.20;101645.00;;;;5034075;28;20199;-66
2022/10/08 04:34:04;;;;;;;1.17;1.17;;;12.00;99.90;12.40;101657.00;;;;5050323;28;20315;-66
2022/10/08 04:36:30;;;;;;;0.40;0.40;;;12.10;99.90;12.40;101656.00;;;;5054950;22;20311;-66
2022/10/08 04:38:56;;;;;;;0.50;0.50;;;12.10;99.90;12.30;101656.00;;;;4997610;28;20274;-66
2022/10/08 04:41:25;;;;;;;0.40;0.40;;;12.10;99.90;12.30;101651.00;;;;4997742;28;20719;-66
2022/10/08 04:43:52;;;;;;;8.20;3.50;;;12.00;99.90;12.50;101657.00;;;;5015196;28;20553;-66
2022/10/08 04:46:20;;;;;;;2.50;2.40;;;12.10;99.90;12.50;101653.00;;;;5014365;28;20171;-66
2022/10/08 04:48:52;;;;;;;0.50;0.50;;;12.10;99.90;12.30;101663.00;;;;5030456;28;20176;-66
2022/10/08 04:51:21;;;;;;;0.70;0.70;;;12.10;99.90;12.10;101667.00;;;;5015594;28;20615;-66
2022/10/08 04:53:47;;;;;;;0.30;0.30;;;12.00;99.90;11.90;101672.00;;;;4997580;28;20188;-66
2022/10/08 04:56:21;;;;;;;1.57;1.47;;;11.90;99.90;12.00;101677.00;;;;5014947;28;20185;-66
2022/10/08 04:58:47;;;;;;;0.40;0.40;;;11.90;99.90;11.90;101640.00;;;;5015197;28;20182;-66
2022/10/08 05:01:17;;;;;;;0.60;0.60;;;11.90;99.90;11.80;101682.00;;;;5013953;28;20176;-66
2022/10/08 05:03:49;;;;;;;0.40;0.40;;;11.80;99.90;12.10;101683.00;;;;5015061;28;20633;-66
2022/10/08 05:06:18;;;;;;;8.30;1.90;;;11.80;99.90;12.50;101680.00;;;;5014724;28;20197;-66
2022/10/08 05:08:45;;;;;;;0.40;0.40;;;12.00;99.90;12.30;101678.00;;;;5013284;28;20185;-66
2022/10/08 05:11:11;;;;;;;2.20;1.03;;;11.90;99.90;12.30;101654.00;;;;5013718;28;20237;-66
2022/10/08 05:13:37;;;;;;;0.40;0.40;;;12.00;99.90;11.90;101691.00;;;;5013515;28;20239;-67
2022/10/08 05:16:09;;;;;;;0.50;0.50;;;11.80;99.90;12.00;101701.00;;;;5013826;28;20274;-66
2022/10/08 05:18:36;;;;;;;0.70;0.70;;;11.80;99.90;11.80;101696.00;;;;4996906;28;20186;-66
2022/10/08 05:21:09;;;;;;;0.63;0.63;;;11.70;99.90;11.80;101701.00;;;;5013388;28;20184;-66
2022/10/08 05:23:36;;;;;;;0.93;0.87;;;11.70;99.90;12.20;101698.00;;;;5029690;28;20597;-66
2022/10/08 05:26:21;;;;;;;0.50;0.50;;;11.70;99.90;12.30;101702.00;;;;5013283;28;20224;-66
2022/10/08 05:28:52;;;;;;;0.43;0.43;;;11.80;99.90;11.90;101706.00;;;;5013223;28;20186;-66
2022/10/08 05:31:18;;;;;;;0.63;0.63;;;11.70;99.90;11.70;101713.00;;;;5014428;28;20237;-66
2022/10/08 05:33:44;;;;;;;0.67;0.67;;;11.60;99.90;11.90;101711.00;;;;5012992;28;20255;-66
2022/10/08 05:36:18;;;;;;;1.03;1.03;;;11.60;99.90;11.80;101710.00;;;;4996200;28;20199;-67
2022/10/08 05:38:47;;;;;;;0.40;0.40;;;11.60;99.90;11.70;101688.00;;;;5014475;28;20170;-66
2022/10/08 05:41:23;;;;;;;4.40;2.17;;;11.60;99.90;12.20;101716.00;;;;4996019;28;20280;-66
2022/10/08 05:43:50;;;;;;;1.90;1.80;;;11.70;99.90;12.10;101694.00;;;;5013323;28;20226;-66
2022/10/08 05:46:17;;;;;;;0.40;0.40;;;11.70;99.90;12.30;101719.00;;;;4996299;28;20628;-66
2022/10/08 05:48:43;;;;;;;0.87;0.87;;;11.80;99.90;11.90;101720.00;;;;5013361;28;20309;-66
2022/10/08 05:51:16;;;;;;;0.77;0.77;;;11.70;99.90;11.70;101738.00;;;;4996339;28;20190;-66
2022/10/08 05:53:46;;;;;;;0.70;0.70;;;11.60;99.90;11.70;101735.00;;;;5014141;28;20184;-66
2022/10/08 05:56:14;;;;;;;0.63;0.63;;;11.60;99.90;12.00;101731.00;;;;5012688;28;20185;-66
2022/10/08 05:58:41;;;;;;;0.90;0.90;;;11.60;99.90;11.70;101732.00;;;;5013752;28;20545;-66
2022/10/08 06:01:26;;;;;;;0.50;0.50;;;11.60;99.90;11.70;101715.00;;;;5014193;28;20633;-66
2022/10/08 06:04:02;;;;;;;0.40;0.40;;;11.50;99.90;12.20;101754.00;;;;5029307;28;20188;-66
2022/10/08 06:06:28;;;;;;;1.00;1.00;;;11.60;99.90;11.90;101754.00;;;;5013356;28;20601;-66
2022/10/08 06:09:00;;;;;;;1.20;1.20;;;11.60;99.90;11.90;101757.00;;;;5012574;28;20267;-66
2022/10/08 06:11:33;;;;;;;0.60;0.60;;;11.60;99.90;11.60;101751.00;;;;5012602;28;20270;-66
2022/10/08 06:14:01;;;;;;;29.60;3.03;;;11.50;99.90;11.90;101754.00;;;;5012797;28;20165;-66
2022/10/08 06:16:32;;;;;;;0.87;0.87;;;11.60;99.90;12.00;101744.00;;;;5012877;28;20210;-66
2022/10/08 06:18:58;;;;;;;0.80;0.80;;;11.60;99.90;11.80;101775.00;;;;5012926;28;20177;-67
2022/10/08 06:21:25;;;;;;;0.40;0.40;;;11.70;99.90;11.60;101786.00;;;;5013292;28;20208;-66
2022/10/08 06:23:55;;;;;;;1.07;1.00;;;11.50;99.90;11.80;101786.00;;;;5012792;28;20175;-66
2022/10/08 06:26:24;;;;;;;0.40;0.40;;;11.60;99.90;11.60;101749.00;;;;5012053;28;20705;-66
2022/10/08 06:28:50;;;;;;;0.40;0.40;;;11.50;99.90;11.60;101787.00;;;;5013583;28;20267;-66
2022/10/08 06:31:17;;;;;;;0.50;0.50;;;11.60;99.90;11.70;101794.00;;;;5012129;28;20190;-66
2022/10/08 06:33:44;;;;;;;0.50;0.50;;;11.60;99.90;12.00;101799.00;;;;5012156;28;20225;-66
2022/10/08 06:36:22;;;;;;;0.83;0.83;;;11.60;99.90;11.60;101764.00;;;;5028067;28;20203;-66
2022/10/08 06:38:57;;;;;;;0.50;0.50;;;11.60;99.90;11.60;101808.00;;;;5012668;28;20175;-66
2022/10/08 06:41:24;;;;;;;2.73;1.37;;;11.50;99.90;11.80;101818.00;;;;4995831;28;20187;-66
2022/10/08 06:43:54;;;;;;;3.10;0.90;;;11.60;99.90;12.00;101821.00;;;;5012211;28;20179;-66
2022/10/08 06:46:21;;;;;;;0.60;0.60;;;11.70;99.90;12.10;101824.00;;;;4996174;28;20226;-66
2022/10/08 06:48:47;;;;;;;0.40;0.40;;;11.80;99.90;12.10;101829.00;;;;5013181;28;20208;-66
2022/10/08 06:51:16;;;;;;;2.60;1.43;;;11.80;99.90;12.20;101829.00;;;;5012162;28;20185;-66
2022/10/08 06:53:43;;;;;;;0.50;0.50;;;11.90;99.90;12.10;101824.00;;;;5013585;28;20239;-66
2022/10/08 06:56:16;;;;;;;13.80;2.37;;;12.00;99.90;12.10;101843.00;;;;5016415;28;20594;-66
2022/10/08 06:58:43;;;;;;;3.40;1.50;;;12.00;99.90;12.30;101830.00;;;;5016405;28;20616;-66
2022/10/08 07:01:23;;;;;;;0.50;0.50;;;12.10;99.90;12.90;101841.00;;;;5015900;28;20281;-66
2022/10/08 07:03:56;;;;;;;0.83;0.83;;;12.30;99.90;12.20;101826.00;;;;5015855;28;20179;-64
2022/10/08 07:06:23;;;;;;;12.73;2.60;;;12.10;99.90;12.50;101852.00;;;;5015892;28;20190;-65
2022/10/08 07:08:59;;;;;;;4.20;2.73;;;12.20;99.90;12.40;101841.00;;;;4999671;28;20231;-64
2022/10/08 07:11:26;;;;;;;8.83;2.63;;;12.20;99.90;12.30;101857.00;;;;5015565;28;20179;-66
2022/10/08 07:13:54;;;;;;;0.93;0.93;;;12.20;99.90;12.20;101859.00;;;;5015797;28;20181;-66
2022/10/08 07:16:22;;;;;;;0.90;0.90;;;12.20;99.90;12.30;101864.00;;;;5032191;28;20181;-66
2022/10/08 07:18:51;;;;;;;1.40;1.40;;;12.20;99.90;12.50;101837.00;;;;5016731;28;20180;-66
2022/10/08 07:21:21;;;;;;;1.60;1.33;;;12.30;99.90;12.70;101850.00;;;;5016706;28;20269;-66
2022/10/08 07:23:50;;;;;;;1.60;1.27;;;12.40;99.90;12.30;101891.00;;;;5017227;28;20181;-66
2022/10/08 07:26:20;;;;;;;2.37;2.17;;;12.40;99.90;12.30;101882.00;;;;5015459;28;20214;-67
2022/10/08 07:29:07;;;;;;;1.73;1.03;;;12.40;99.90;12.80;101905.00;;;;5032196;28;20177;-66
2022/10/08 07:31:35;;;;;;;1.33;1.23;;;12.60;99.90;12.90;101877.00;;;;5015291;28;20549;-66
2022/10/08 07:34:26;;;;;;;1.07;0.97;;;12.70;99.90;12.70;101906.00;;;;5016221;28;20182;-66
2022/10/08 07:36:55;;;;;;;4.17;2.00;;;12.70;99.90;12.90;101901.00;;;;5015226;28;20205;-66
2022/10/08 07:39:21;;;;;;;2.00;1.87;;;12.80;99.90;13.30;101897.00;;;;5015253;28;20188;-66
2022/10/08 07:41:48;;;;;;;2.50;2.13;;;13.10;99.90;13.60;101897.00;;;;4998945;28;20183;-66
2022/10/08 07:44:17;;;;;;;0.30;0.30;;;13.30;99.90;14.40;101900.00;;;;4998932;28;20198;-66
2022/10/08 07:46:49;;;;;;;4.87;1.87;;;13.80;99.90;14.40;101898.00;;;;4998597;28;20185;-65
2022/10/08 07:49:16;;;;;;;1.90;1.27;;;14.00;99.90;13.60;101907.00;;;;5015670;28;20180;-65
2022/10/08 07:51:43;;;;;;;4.43;3.20;;;13.70;99.90;13.70;101904.00;;;;5015928;28;20200;-65
2022/10/08 07:54:52;;;;;;;0.57;0.57;;;13.70;99.90;13.30;101909.00;;;;5015436;28;20259;-66
2022/10/08 07:57:21;;;;;;;0.90;0.90;;;13.60;99.90;14.50;101911.00;;;;5014818;28;20168;-65
2022/10/08 07:59:47;;;;;;;3.60;3.37;;;13.90;99.90;14.70;101917.00;;;;5014955;28;20188;-66
2022/10/08 08:02:12;;;;;;;2.10;1.90;;;14.40;99.90;14.60;101910.00;;;;5014223;28;20553;-66
2022/10/08 08:04:59;;;;;;;1.40;1.30;;;14.40;99.90;14.60;101912.00;;;;4997800;28;20669;-65
2022/10/08 08:07:25;;;;;;;0.30;0.30;;;14.50;99.90;14.10;101910.00;;;;4998170;28;20213;-65
2022/10/08 08:09:51;;;;;;;0.80;0.80;;;14.40;99.90;14.40;101925.00;;;;4998472;28;20620;-65
2022/10/08 08:12:17;;;;;;;4.90;1.07;;;14.30;99.90;14.70;101926.00;;;;4998418;28;20565;-65
2022/10/08 08:14:44;;;;;;;0.30;0.30;;;14.60;99.90;14.90;101934.00;;;;5014215;28;20197;-65
2022/10/08 08:17:10;;;;;;;1.93;1.30;;;14.80;99.90;14.60;101935.00;;;;4997794;28;20190;-66
2022/10/08 08:19:57;;;;;;;0.43;0.43;;;14.70;99.90;15.80;101954.00;;;;4998711;28;20194;-66
2022/10/08 08:22:30;;;;;;;2.33;1.70;;;15.10;99.90;16.30;101961.00;;;;4997778;28;20637;-65
2022/10/08 08:24:56;;;;;;;3.93;1.50;;;15.70;99.90;16.40;101969.00;;;;5014549;28;20213;-65
2022/10/08 08:27:22;;;;;;;1.60;0.93;;;16.00;99.90;15.90;101959.00;;;;4997855;28;20228;-66
2022/10/08 08:29:59;;;;;;;0.97;0.97;;;15.70;99.90;16.50;101938.00;;;;4998037;28;20610;-65
2022/10/08 08:32:42;;;;;;;0.20;0.20;;;15.80;99.90;17.70;101980.00;;;;4997785;28;20266;-66
2022/10/08 08:35:08;;;;;;;4.27;0.93;;;16.70;99.90;17.30;102002.00;;;;4998118;28;20171;-66
2022/10/08 08:37:34;;;;;;;0.23;0.23;;;17.00;99.90;16.90;102005.00;;;;4997771;28;20191;-65
2022/10/08 08:40:24;;;;;;;0.23;0.23;;;16.90;99.90;17.80;102018.00;;;;5014195;28;20537;-65
2022/10/08 08:42:56;;;;;;;0.20;0.20;;;17.00;99.90;17.90;102021.00;;;;4997973;28;20180;-66
2022/10/08 08:45:34;;;;;;;0.20;0.20;;;17.20;99.90;17.90;102033.00;;;;4997372;28;20242;-66
2022/10/08 08:48:17;;;;;;;5.17;1.53;;;17.20;99.90;16.80;102044.00;;;;5014246;28;20178;-66
2022/10/08 08:51:03;;;;;;;0.20;0.20;;;16.90;99.90;18.20;102049.00;;;;4997489;28;20827;-66
2022/10/08 08:53:32;;;;;;;0.20;0.20;;;17.20;99.90;19.40;102089.00;;;;5013585;28;20206;-66
2022/10/08 08:57:04;;;;;;;0.20;0.20;;;17.90;99.90;20.20;102107.00;;;;5014509;28;20191;-66
2022/10/08 09:00:00;;;;;;;0.43;0.43;;;18.70;99.90;19.50;102106.00;;;;5018334;28;20516;-66
2022/10/08 09:02:34;;;;;;;0.20;0.20;;;18.60;99.90;19.80;102106.00;;;;4992984;28;20202;-66
2022/10/08 09:05:19;;;;;;;0.10;0.10;;;18.70;99.90;20.20;102125.00;;;;4997232;28;20188;-66
2022/10/08 09:08:12;;;;;;;1.67;1.58;;;19.00;99.90;20.80;102133.00;;;;5013744;28;20204;-66
2022/10/08 09:10:53;;;;;;;0.20;0.20;;;19.40;99.90;20.80;102141.00;;;;5012610;28;20196;-66
2022/10/08 09:13:49;;;;;;;0.40;0.40;;;19.70;99.90;21.00;102143.00;;;;5013284;28;20576;-66
2022/10/08 09:16:17;;;;;;;0.10;0.10;;;19.80;99.90;21.10;102157.00;;;;5014174;28;20182;-66
2022/10/08 09:19:04;;;;;;;0.10;0.10;;;19.90;99.90;20.70;102156.00;;;;5013225;28;20187;-66
2022/10/08 09:21:45;;;;;;;0.65;0.43;;;19.70;99.90;21.30;102158.00;;;;4997253;28;20230;-66
2022/10/08 09:24:14;;;;;;;0.28;0.28;;;19.90;99.90;21.30;102169.00;;;;5013335;28;20197;-66
2022/10/08 09:26:40;;;;;;;0.20;0.20;;;20.20;99.90;20.50;102172.00;;;;4996909;28;20549;-66
2022/10/08 09:29:06;;;;;;;0.10;0.10;;;19.80;99.90;20.90;102174.00;;;;5012953;28;20179;-66
2022/10/08 09:31:41;;;;;;;0.20;0.20;;;19.70;99.90;20.50;102175.00;;;;5013170;28;20191;-66
2022/10/08 09:34:17;;;;;;;0.28;0.28;;;19.80;99.90;21.20;102180.00;;;;5013004;28;20187;-66
2022/10/08 09:36:50;;;;;;;0.45;0.45;;;19.90;99.90;20.80;102163.00;;;;5012881;28;20208;-66
2022/10/08 09:39:24;;;;;;;0.10;0.10;;;19.90;99.90;20.90;102198.00;;;;5012867;28;20175;-66
2022/10/08 09:42:36;;;;;;;0.20;0.20;;;19.90;99.90;19.40;102195.00;;;;5029755;28;20190;-66
2022/10/08 09:45:40;;;;;;;0.10;0.10;;;18.90;99.90;18.70;102223.00;;;;5012872;28;20185;-66
2022/10/08 09:48:48;;;;;;;0.30;0.30;;;18.00;99.90;19.90;102200.00;;;;4993692;28;20194;-66
2022/10/08 09:51:16;;;;;;;0.20;0.20;;;18.50;99.90;20.10;102211.00;;;;5001257;28;20276;-67
2022/10/08 09:53:51;;;;;;;0.10;0.10;;;18.90;99.90;20.40;102219.00;;;;5012990;28;20210;-66
2022/10/08 09:56:26;;;;;;;0.10;0.10;;;19.10;99.90;20.10;102208.00;;;;5013730;28;20638;-67
2022/10/08 09:59:04;;;;;;;0.10;0.10;;;19.30;99.90;21.20;102223.00;;;;5028876;28;20528;-66
2022/10/08 10:01:34;;;;;;;0.10;0.10;;;19.70;99.90;22.00;102213.00;;;;4996567;28;20623;-66
2022/10/08 10:04:01;;;;;;;0.65;0.63;;;20.40;99.90;20.90;102228.00;;;;5013239;28;20182;-66
2022/10/08 10:06:37;;;;;;;2.38;1.38;;;20.20;99.90;19.90;102256.00;;;;5028782;28;20190;-65
2022/10/08 10:09:46;;;;;;;0.10;0.10;;;19.40;99.90;20.50;102251.00;;;;5012728;28;20245;-65
2022/10/08 10:12:31;;;;;;;1.88;0.52;;;19.40;99.90;20.10;102249.00;;;;4996073;28;20206;-65
2022/10/08 10:16:00;;;;;;;0.10;0.10;;;19.40;99.90;20.50;102250.00;;;;4995903;28;20194;-67
2022/10/08 10:18:37;;;;;;;0.10;0.10;;;19.40;99.90;19.30;102274.00;;;;4956293;28;20551;-65
2022/10/08 10:33:50;;;;;;;0.10;0.10;;;20.40;99.90;22.10;102238.00;;;;5126834;27;20563;-67
2022/10/08 10:36:17;;;;;;;0.10;0.10;;;20.80;99.90;22.90;102229.00;;;;5089788;28;20239;-65
2022/10/08 10:39:00;;;;;;;0.10;0.10;;;21.40;99.90;22.60;102231.00;;;;5089505;28;20181;-65
2022/10/08 10:42:06;;;;;;;2.28;0.55;;;21.50;99.90;21.90;102251.00;;;;5089299;28;20218;-68
2022/10/08 10:44:56;;;;;;;0.30;0.30;;;20.90;99.90;21.10;102273.00;;;;5088395;28;20192;-67
2022/10/08 10:47:30;;;;;;;0.10;0.10;;;20.40;99.90;21.50;102262.00;;;;5089082;28;20191;-68
2022/10/08 10:50:00;;;;;;;0.10;0.10;;;20.30;99.90;21.70;102265.00;;;;5072657;28;20185;-67
2022/10/08 10:53:11;;;;;;;0.10;0.10;;;20.40;99.90;22.20;102249.00;;;;5071870;28;20266;-67
2022/10/08 10:55:51;;;;;;;0.38;0.30;;;20.80;99.90;22.20;102241.00;;;;5066006;28;20535;-67
2022/10/08 10:58:50;;;;;;;0.13;0.13;;;20.90;99.90;21.50;102259.00;;;;5089251;28;20185;-67
2022/10/08 11:02:08;;;;;;;0.10;0.10;;;20.60;99.90;21.40;102277.00;;;;5088950;28;20188;-68
2022/10/08 11:05:06;;;;;;;0.10;0.10;;;20.40;99.90;20.80;102295.00;;;;5088675;28;20199;-67
2022/10/08 11:08:38;;;;;;;0.10;0.10;;;19.90;99.90;20.20;102294.00;;;;5088797;28;20582;-67
2022/10/08 11:11:33;;;;;;;0.20;0.20;;;19.50;99.90;19.70;102325.00;;;;5071318;28;20188;-67
2022/10/08 11:14:13;;;;;;;0.10;0.10;;;18.70;99.90;19.80;102323.00;;;;5088753;28;20186;-67
2022/10/08 11:16:49;;;;;;;0.20;0.20;;;18.60;99.90;20.20;102314.00;;;;5088278;28;20647;-68
2022/10/08 11:19:47;;;;;;;5.43;0.40;;;18.80;99.90;20.20;102309.00;;;;5089736;28;20198;-68
2022/10/08 11:22:53;;;;;;;0.73;0.37;;;19.20;99.90;19.20;102331.00;;;;5088401;28;20187;-67
2022/10/08 11:25:48;;;;;;;0.22;0.20;;;18.90;99.90;19.30;102348.00;;;;5055534;28;20189;-67
2022/10/08 11:28:55;;;;;;;0.57;0.57;;;18.50;99.90;19.50;102349.00;;;;5088083;28;20188;-67
2022/10/08 11:31:40;;;;;;;0.38;0.20;;;18.60;99.90;19.40;102330.00;;;;5088052;28;20184;-67
2022/10/08 11:34:24;;;;;;;0.10;0.10;;;18.40;99.90;20.80;102318.00;;;;5088332;28;20934;-67
2022/10/08 11:37:35;;;;;;;0.10;0.10;;;19.30;99.90;21.00;102293.00;;;;5089255;28;20229;-67
2022/10/08 11:40:39;;;;;;;0.10;0.10;;;19.90;99.90;20.50;102320.00;;;;5071026;28;20682;-67
2022/10/08 11:43:47;;;;;;;0.10;0.10;;;19.30;99.90;21.30;102271.00;;;;5085413;28;20204;-67
2022/10/08 11:46:30;;;;;;;0.10;0.10;;;20.00;99.90;21.80;102287.00;;;;5050434;28;20188;-67
2022/10/08 11:49:12;;;;;;;0.10;0.10;;;20.50;99.90;21.60;102283.00;;;;5074951;28;20170;-68
2022/10/08 11:51:46;;;;;;;0.10;0.10;;;20.60;99.90;22.00;102289.00;;;;5074362;28;20210;-68
2022/10/08 11:54:31;;;;;;;0.10;0.10;;;20.70;99.90;20.90;102291.00;;;;5073870;28;20209;-67
2022/10/08 11:57:30;;;;;;;0.65;0.20;;;20.40;99.90;21.00;102313.00;;;;5073981;28;20262;-67
2022/10/08 12:00:34;;;;;;;0.10;0.10;;;20.20;99.90;21.30;102306.00;;;;5058870;28;20196;-67
2022/10/08 12:03:01;;;;;;;0.10;0.10;;;20.20;99.90;22.00;102303.00;;;;5073358;28;20205;-67
2022/10/08 12:09:04;;;;;;;0.10;0.10;;;20.90;99.90;22.20;102288.00;;;;5074666;28;20196;-65
2022/10/08 12:11:38;;;;;;;1.55;0.57;;;21.20;99.90;21.90;102294.00;;;;5073719;28;20193;-65
2022/10/08 12:14:10;;;;;;;0.10;0.10;;;21.00;99.90;21.80;102321.00;;;;5073741;28;20181;-67
2022/10/08 12:16:55;;;;;;;0.10;0.10;;;20.70;99.90;22.60;102295.00;;;;5073599;28;20181;-65
2022/10/08 12:19:33;;;;;;;0.55;0.40;;;21.10;99.90;22.70;102286.00;;;;5073682;28;20624;-65
2022/10/08 12:22:09;;;;;;;0.10;0.10;;;21.50;99.90;21.90;102301.00;;;;5073713;28;20188;-65
2022/10/08 12:24:38;;;;;;;0.10;0.10;;;21.30;99.90;22.40;102300.00;;;;5073662;28;20592;-65
2022/10/08 12:27:25;;;;;;;0.47;0.47;;;21.10;99.90;19.60;102318.00;;;;5073483;28;20182;-67
2022/10/08 12:30:15;;;;;;;0.10;0.10;;;20.10;99.90;21.20;102337.00;;;;5072847;28;20209;-67
2022/10/08 12:32:41;;;;;;;0.15;0.15;;;20.00;99.90;21.80;102332.00;;;;5056481;28;20223;-65
2022/10/08 12:36:09;;;;;;;0.10;0.10;;;20.50;99.90;21.50;102333.00;;;;5073599;28;20538;-65
2022/10/08 12:39:03;;;;;;;0.10;0.10;;;20.30;99.90;20.80;102334.00;;;;5040522;28;20185;-65
2022/10/08 12:42:26;;;;;;;0.10;0.10;;;19.90;99.90;21.60;102333.00;;;;5056552;28;20212;-67
2022/10/08 12:45:12;;;;;;;0.10;0.10;;;20.10;99.90;21.90;102324.00;;;;5072731;28;20288;-67